createdAt,value
2023-02-11T00:01:13.001Z,102125.16
2023-02-11T00:03:40.673Z,102116.53
2023-02-11T00:06:10.106Z,102121.56
2023-02-11T00:08:38.328Z,102124.59
2023-02-11T00:11:07.665Z,102121.19
2023-02-11T00:13:35.227Z,102117.72
2023-02-11T00:16:07.737Z,102109.09
2023-02-11T00:18:36.261Z,102111.13
2023-02-11T00:21:07.500Z,102116.53
2023-02-11T00:23:35.280Z,102119.69
2023-02-11T00:26:03.158Z,102121.13
2023-02-11T00:28:32.129Z,102121.88
2023-02-11T00:31:01.651Z,102121.56
2023-02-11T00:33:29.996Z,102120.47
2023-02-11T00:35:57.642Z,102118.84
2023-02-11T00:38:25.343Z,102118.13
2023-02-11T00:40:53.000Z,102123.72
2023-02-11T00:43:20.555Z,102115.25
2023-02-11T00:45:49.860Z,102122.28
2023-02-11T00:48:17.809Z,102112.19
2023-02-11T00:50:45.515Z,102113.25
2023-02-11T00:53:13.105Z,102112.19
2023-02-11T00:55:40.727Z,102102.97
2023-02-11T00:58:08.423Z,102108.94
2023-02-11T01:00:36.151Z,102100.28
2023-02-11T01:03:05.212Z,102103.22
2023-02-11T01:05:32.893Z,102094.91
2023-02-11T01:08:00.568Z,102093.78
2023-02-11T01:10:29.934Z,102090.16
2023-02-11T01:12:57.612Z,102079.19
2023-02-11T01:15:26.922Z,102093.13
2023-02-11T01:17:54.595Z,102083.34
2023-02-11T01:20:26.336Z,102085.38
2023-02-11T01:22:53.937Z,102071.13
2023-02-11T01:25:21.474Z,102065.16
2023-02-11T01:27:49.026Z,102071.13
2023-02-11T01:30:16.618Z,102068.59
2023-02-11T01:32:44.220Z,102058.09
2023-02-11T01:35:11.920Z,102066.75
2023-02-11T01:37:41.650Z,102069.28
2023-02-11T01:40:15.828Z,102070.63
2023-02-11T01:42:43.942Z,102074.22
2023-02-11T01:45:49.366Z,102073.34
2023-02-11T01:48:21.778Z,102065.19
2023-02-11T01:50:53.818Z,102056.16
2023-02-11T01:53:40.905Z,102069.84
2023-02-11T01:56:26.738Z,102062.41
2023-02-11T01:59:10.648Z,102052.75
2023-02-11T02:01:40.509Z,102054.03
2023-02-11T02:04:10.527Z,102058.50
2023-02-11T02:06:44.726Z,102054.78
2023-02-11T02:09:20.971Z,102051.91
2023-02-11T02:11:48.702Z,102044.72
2023-02-11T02:14:16.332Z,102062.59
2023-02-11T02:16:49.419Z,102060.97
2023-02-11T02:20:04.715Z,102053.38
2023-02-11T02:23:04.982Z,102045.38
2023-02-11T02:26:01.236Z,102041.06
2023-02-11T02:29:08.002Z,102035.28
2023-02-11T02:31:54.125Z,102026.34
2023-02-11T02:34:30.531Z,102026.66
2023-02-11T02:37:05.497Z,102029.03
2023-02-11T02:39:36.404Z,102021.59
2023-02-11T02:42:05.641Z,102028.19
2023-02-11T02:44:34.590Z,102024.03
2023-02-11T02:47:02.593Z,102012.34
2023-02-11T02:49:31.770Z,102016.25
2023-02-11T02:52:07.904Z,102005.72
2023-02-11T02:55:00.884Z,102014.91
2023-02-11T02:57:33.671Z,101995.78
2023-02-11T03:00:19.052Z,101982.41
2023-02-11T03:02:58.052Z,101984.78
2023-02-11T03:05:35.174Z,102011.34
2023-02-11T03:08:09.353Z,102004.06
2023-02-11T03:10:39.473Z,101999.75
2023-02-11T03:13:08.461Z,101999.94
2023-02-11T03:15:39.916Z,102006.59
2023-02-11T03:18:10.560Z,102008.72
2023-02-11T03:20:43.033Z,101997.31
2023-02-11T03:23:15.345Z,101987.38
2023-02-11T03:25:48.048Z,101976.22
2023-02-11T03:28:23.304Z,101983.47
2023-02-11T03:30:56.199Z,101980.78
2023-02-11T03:33:28.486Z,101982.72
2023-02-11T03:36:01.008Z,101976.97
2023-02-11T03:38:33.943Z,101982.31
2023-02-11T03:41:04.414Z,101979.22
2023-02-11T03:43:34.692Z,101976.44
2023-02-11T03:46:04.541Z,101966.91
2023-02-11T03:48:35.810Z,101966.75
2023-02-11T03:51:08.164Z,101964.84
2023-02-11T03:53:37.414Z,101971.22
2023-02-11T03:56:09.233Z,101976.75
2023-02-11T03:58:36.767Z,101981.81
2023-02-11T04:01:06.092Z,101987.19
2023-02-11T04:03:33.887Z,101987.81
2023-02-11T04:06:01.593Z,101990.69
2023-02-11T04:08:31.893Z,101998.88
2023-02-11T04:10:59.471Z,102001.00
2023-02-11T04:13:27.239Z,101992.97
2023-02-11T04:15:55.044Z,101986.75
2023-02-11T04:18:22.684Z,101981.16
2023-02-11T04:20:51.287Z,101970.44
2023-02-11T04:23:18.870Z,101980.25
2023-02-11T04:25:47.892Z,101981.00
2023-02-11T04:28:15.496Z,101981.72
2023-02-11T04:30:43.177Z,101984.41
2023-02-11T04:33:10.850Z,101971.81
2023-02-11T04:35:38.400Z,101975.22
2023-02-11T04:38:06.075Z,101974.66
2023-02-11T04:40:33.646Z,101978.22
2023-02-11T04:43:02.602Z,101986.28
2023-02-11T04:45:30.250Z,101981.09
2023-02-11T04:47:58.102Z,101977.38
2023-02-11T04:50:25.899Z,101973.38
2023-02-11T04:52:53.542Z,101974.72
2023-02-11T04:55:21.106Z,101967.31
2023-02-11T04:57:48.727Z,101952.16
2023-02-11T05:00:18.327Z,101960.16
2023-02-11T05:02:46.000Z,101956.59
2023-02-11T05:05:13.725Z,101946.50
2023-02-11T05:07:41.360Z,101939.84
2023-02-11T05:10:09.465Z,101931.06
2023-02-11T05:12:37.086Z,101924.38
2023-02-11T05:15:05.389Z,101919.47
2023-02-11T05:17:34.262Z,101923.06
2023-02-11T05:20:02.133Z,101918.56
2023-02-11T05:22:29.715Z,101911.13
2023-02-11T05:24:57.288Z,101905.97
2023-02-11T05:27:24.903Z,101900.16
2023-02-11T05:29:52.457Z,101910.28
2023-02-11T05:32:20.192Z,101907.00
2023-02-11T05:34:49.114Z,101906.56
2023-02-11T05:37:16.959Z,101910.88
2023-02-11T05:39:44.598Z,101912.66
2023-02-11T05:42:12.137Z,101926.94
2023-02-11T05:44:40.181Z,101933.22
2023-02-11T05:47:08.916Z,101936.78
2023-02-11T05:49:36.899Z,101932.03
2023-02-11T05:52:06.353Z,101926.09
2023-02-11T05:54:34.019Z,101923.69
2023-02-11T05:57:01.577Z,101920.72
2023-02-11T05:59:29.111Z,101934.84
2023-02-11T06:01:56.855Z,101932.31
2023-02-11T06:04:24.381Z,101937.69
2023-02-11T06:06:52.056Z,101937.69
2023-02-11T06:09:21.027Z,101935.31
2023-02-11T06:11:48.555Z,101927.28
2023-02-11T06:14:16.058Z,101935.91
2023-02-11T06:16:43.681Z,101941.91
2023-02-11T06:19:12.091Z,101939.66
2023-02-11T06:21:44.059Z,101938.63
2023-02-11T06:24:12.369Z,101938.63
2023-02-11T06:26:41.285Z,101936.84
2023-02-11T06:29:08.908Z,101935.34
2023-02-11T06:31:38.034Z,101938.91
2023-02-11T06:34:05.922Z,101950.53
2023-02-11T06:36:33.547Z,101952.63
2023-02-11T06:39:01.166Z,101938.31
2023-02-11T06:41:29.064Z,101932.50
2023-02-11T06:43:58.074Z,101924.63
2023-02-11T06:46:25.759Z,101929.38
2023-02-11T06:48:53.393Z,101928.06
2023-02-11T06:51:21.005Z,101929.09
2023-02-11T06:53:48.896Z,101927.00
2023-02-11T06:56:18.606Z,101932.81
2023-02-11T06:58:47.113Z,101945.50
2023-02-11T07:01:17.324Z,101958.88
2023-02-11T07:03:45.928Z,101949.50
2023-02-11T07:06:17.048Z,101949.34
2023-02-11T07:08:45.915Z,101942.16
2023-02-11T07:11:15.003Z,101936.50
2023-02-11T07:13:42.894Z,101940.50
2023-02-11T07:16:12.851Z,101952.56
2023-02-11T07:18:42.526Z,101958.53
2023-02-11T07:21:13.023Z,101967.78
2023-02-11T07:23:41.653Z,101964.75
2023-02-11T07:26:11.676Z,101968.50
2023-02-11T07:28:40.036Z,101980.91
2023-02-11T07:31:08.924Z,101987.44
2023-02-11T07:33:37.297Z,101990.16
2023-02-11T07:36:08.202Z,101994.66
2023-02-11T07:38:36.515Z,101991.66
2023-02-11T07:41:06.201Z,101983.28
2023-02-11T07:43:34.772Z,101981.47
2023-02-11T07:46:04.748Z,101987.00
2023-02-11T07:48:32.345Z,101986.84
2023-02-11T07:51:08.545Z,101981.84
2023-02-11T07:53:36.443Z,101981.84
2023-02-11T07:56:05.375Z,101982.41
2023-02-11T07:58:34.500Z,101979.88
2023-02-11T08:01:03.504Z,101976.88
2023-02-11T08:03:31.115Z,101983.72
2023-02-11T08:05:59.027Z,101972.06
2023-02-11T08:08:28.396Z,101958.66
2023-02-11T08:10:56.029Z,101952.63
2023-02-11T08:13:23.579Z,101957.25
2023-02-11T08:15:51.515Z,101957.03
2023-02-11T08:18:19.287Z,101954.34
2023-02-11T08:20:46.813Z,101949.81
2023-02-11T08:23:14.405Z,101948.72
2023-02-11T08:25:43.484Z,101940.22
2023-02-11T08:28:11.080Z,101938.09
2023-02-11T08:30:38.723Z,101942.50
2023-02-11T08:33:06.316Z,101942.09
2023-02-11T08:35:36.076Z,101947.38
2023-02-11T08:38:03.629Z,101946.06
2023-02-11T08:40:31.158Z,101952.66
2023-02-11T08:43:00.093Z,101952.06
2023-02-11T08:45:27.692Z,101948.69
2023-02-11T08:47:55.318Z,101955.34
2023-02-11T08:50:22.989Z,101954.66
2023-02-11T08:52:51.800Z,101952.06
2023-02-11T08:55:19.433Z,101944.41
2023-02-11T08:57:47.009Z,101956.97
2023-02-11T09:00:17.501Z,101950.06
2023-02-11T09:02:45.203Z,101947.16
2023-02-11T09:05:13.140Z,101955.03
2023-02-11T09:07:41.172Z,101947.47
2023-02-11T09:10:09.018Z,101946.53
2023-02-11T09:12:36.630Z,101935.03
2023-02-11T09:15:04.273Z,101929.03
2023-02-11T09:17:33.231Z,101933.34
2023-02-11T09:20:00.818Z,101926.22
2023-02-11T09:22:28.560Z,101923.81
2023-02-11T09:24:56.210Z,101925.00
2023-02-11T09:27:23.771Z,101921.09
2023-02-11T09:29:51.547Z,101929.41
2023-02-11T09:32:19.208Z,101930.16
2023-02-11T09:34:48.089Z,101925.69
2023-02-11T09:37:15.595Z,101926.25
2023-02-11T09:39:44.345Z,101934.25
2023-02-11T09:42:35.606Z,101926.34
2023-02-11T09:45:05.587Z,101937.34
2023-02-11T09:47:35.100Z,101940.16
2023-02-11T09:50:08.061Z,101948.28
2023-02-11T09:52:42.502Z,101955.72
2023-02-11T09:55:19.663Z,101952.06
2023-02-11T09:57:47.362Z,101951.81
2023-02-11T10:00:25.134Z,101955.84
2023-02-11T10:03:27.650Z,101965.88
2023-02-11T10:06:16.300Z,101958.72
2023-02-11T10:08:56.485Z,101971.38
2023-02-11T10:11:32.369Z,101977.38
2023-02-11T10:14:13.134Z,101978.88
2023-02-11T10:16:55.152Z,101983.06
2023-02-11T10:19:35.845Z,101976.00
2023-02-11T10:22:13.768Z,101967.81
2023-02-11T10:24:43.350Z,101980.56
2023-02-11T10:27:18.332Z,101979.84
2023-02-11T10:29:50.481Z,101969.59
2023-02-11T10:32:30.607Z,101973.09
2023-02-11T10:35:03.257Z,101968.53
2023-02-11T10:37:32.384Z,101968.00
2023-02-11T10:39:59.926Z,101970.81
2023-02-11T10:42:28.244Z,101962.38
2023-02-11T10:45:00.686Z,101969.31
2023-02-11T10:47:32.821Z,101952.50
2023-02-11T10:50:03.587Z,101948.06
2023-02-11T10:52:32.720Z,101942.59
2023-02-11T10:55:03.428Z,101932.31
2023-02-11T10:57:37.269Z,101932.44
2023-02-11T11:00:21.060Z,101938.28
2023-02-11T11:02:56.157Z,101932.88
2023-02-11T11:05:30.970Z,101922.69
2023-02-11T11:08:02.668Z,101919.13
2023-02-11T11:10:36.676Z,101924.66
2023-02-11T11:13:04.640Z,101916.00
2023-02-11T11:15:33.155Z,101922.81
2023-02-11T11:18:23.389Z,101929.09
2023-02-11T11:20:58.770Z,101927.78
2023-02-11T11:23:30.515Z,101929.69
2023-02-11T11:26:07.498Z,101939.81
2023-02-11T11:28:40.782Z,101936.00
2023-02-11T11:31:16.192Z,101929.66
2023-02-11T11:33:45.399Z,101924.59
2023-02-11T11:36:17.429Z,101926.91
2023-02-11T11:38:50.154Z,101932.75
2023-02-11T11:41:25.644Z,101931.38
2023-02-11T11:44:02.688Z,101932.13
2023-02-11T11:46:33.610Z,101935.97
2023-02-11T11:49:15.980Z,101936.00
2023-02-11T11:51:48.582Z,101921.78
2023-02-11T11:54:23.261Z,101928.34
2023-02-11T11:56:57.480Z,101920.50
2023-02-11T11:59:25.038Z,101925.16
2023-02-11T12:02:14.990Z,101915.78
2023-02-11T12:04:56.837Z,101930.28
2023-02-11T12:07:37.890Z,101917.16
2023-02-11T12:10:29.101Z,101926.63
2023-02-11T12:13:07.677Z,101925.78
2023-02-11T12:15:43.897Z,101916.78
2023-02-11T12:18:27.992Z,101907.22
2023-02-11T12:21:21.223Z,101910.41
2023-02-11T12:23:59.408Z,101898.81
2023-02-11T12:26:34.606Z,101911.34
2023-02-11T12:29:13.186Z,101903.41
2023-02-11T12:31:53.433Z,101910.97
2023-02-11T12:34:41.438Z,101911.47
2023-02-11T12:37:21.014Z,101914.81
2023-02-11T12:39:52.501Z,101917.09
2023-02-11T12:42:58.986Z,101903.28
2023-02-11T12:45:39.598Z,101897.00
2023-02-11T12:48:22.862Z,101892.75
2023-02-11T12:50:59.180Z,101883.66
2023-02-11T12:54:06.926Z,101877.44
2023-02-11T12:56:40.047Z,101887.66
2023-02-11T12:59:30.069Z,101883.75
2023-02-11T13:02:00.636Z,101886.06
2023-02-11T13:04:34.280Z,101882.69
2023-02-11T13:07:08.342Z,101869.69
2023-02-11T13:09:40.264Z,101875.34
2023-02-11T13:12:22.831Z,101871.06
2023-02-11T13:14:54.628Z,101863.59
2023-02-11T13:17:30.950Z,101870.16
2023-02-11T13:20:06.429Z,101873.72
2023-02-11T13:22:39.629Z,101874.94
2023-02-11T13:25:17.604Z,101874.19
2023-02-11T13:27:58.352Z,101859.31
2023-02-11T13:30:33.255Z,101867.22
2023-02-11T13:33:19.649Z,101864.72
2023-02-11T13:36:10.141Z,101857.50
2023-02-11T13:38:39.079Z,101861.59
2023-02-11T13:41:15.424Z,101858.94
2023-02-11T13:43:43.506Z,101863.53
2023-02-11T13:46:14.726Z,101865.78
2023-02-11T13:48:49.887Z,101854.16
2023-02-11T13:51:20.165Z,101851.44
2023-02-11T13:53:51.377Z,101857.47
2023-02-11T13:56:30.140Z,101854.03
2023-02-11T13:59:01.901Z,101858.81
2023-02-11T14:02:21.470Z,101862.47
2023-02-11T14:05:39.859Z,101859.94
2023-02-11T14:08:33.370Z,101848.84
2023-02-11T14:11:02.636Z,101854.63
2023-02-11T14:13:31.667Z,101859.84
2023-02-11T14:16:10.975Z,101855.19
2023-02-11T14:19:02.370Z,101858.84
2023-02-11T14:21:36.548Z,101850.63
2023-02-11T14:24:56.248Z,101848.13
2023-02-11T14:27:31.499Z,101840.97
2023-02-11T14:30:19.668Z,101833.41
2023-02-11T14:32:58.271Z,101834.00
2023-02-11T14:35:36.944Z,101834.00
2023-02-11T14:38:13.026Z,101843.97
2023-02-11T14:40:45.810Z,101836.94
2023-02-11T14:43:17.350Z,101842.41
2023-02-11T14:45:49.103Z,101842.69
2023-02-11T14:48:18.983Z,101855.88
2023-02-11T14:50:54.542Z,101852.50
2023-02-11T14:53:26.496Z,101853.31
2023-02-11T14:55:55.869Z,101847.03
2023-02-11T14:58:25.620Z,101844.47
2023-02-11T15:00:56.450Z,101841.88
2023-02-11T15:03:48.870Z,101850.16
2023-02-11T15:06:22.927Z,101859.47
2023-02-11T15:08:53.413Z,101851.00
2023-02-11T15:11:24.586Z,101852.16
2023-02-11T15:13:55.565Z,101851.06
2023-02-11T15:16:25.811Z,101857.22
2023-02-11T15:18:55.655Z,101861.06
2023-02-11T15:21:27.727Z,101859.91
2023-02-11T15:24:01.368Z,101866.53
2023-02-11T15:26:30.676Z,101863.75
2023-02-11T15:28:58.509Z,101868.13
2023-02-11T15:31:28.185Z,101874.78
2023-02-11T15:33:56.213Z,101872.72
2023-02-11T15:36:32.658Z,101873.19
2023-02-11T15:39:20.215Z,101872.50
2023-02-11T15:41:47.776Z,101881.03
2023-02-11T15:44:29.386Z,101878.47
2023-02-11T15:46:57.321Z,101875.22
2023-02-11T15:49:25.947Z,101871.56
2023-02-11T15:51:58.584Z,101882.19
2023-02-11T15:54:29.368Z,101880.81
2023-02-11T15:57:02.918Z,101881.06
2023-02-11T15:59:35.302Z,101886.09
2023-02-11T16:02:10.277Z,101887.72
2023-02-11T16:04:38.502Z,101887.34
2023-02-11T16:07:07.578Z,101893.56
2023-02-11T16:09:37.609Z,101883.28
2023-02-11T16:12:23.436Z,101891.34
2023-02-11T16:14:51.012Z,101903.84
2023-02-11T16:17:26.986Z,101892.63
2023-02-11T16:19:55.789Z,101894.03
2023-02-11T16:22:30.029Z,101899.72
2023-02-11T16:25:00.239Z,101909.88
2023-02-11T16:27:30.599Z,101909.78
2023-02-11T16:29:59.221Z,101908.91
2023-02-11T16:32:29.945Z,101902.06
2023-02-11T16:35:01.722Z,101914.75
2023-02-11T16:37:31.497Z,101907.22
2023-02-11T16:39:59.193Z,101907.72
2023-02-11T16:42:26.964Z,101909.41
2023-02-11T16:44:54.593Z,101908.53
2023-02-11T16:47:25.958Z,101911.78
2023-02-11T16:49:54.114Z,101920.00
2023-02-11T16:52:22.345Z,101922.28
2023-02-11T16:54:51.501Z,101919.94
2023-02-11T16:57:22.568Z,101923.16
2023-02-11T16:59:50.674Z,101922.66
2023-02-11T17:02:24.134Z,101921.47
2023-02-11T17:04:53.438Z,101931.38
2023-02-11T17:07:21.196Z,101938.09
2023-02-11T17:09:48.922Z,101934.13
2023-02-11T17:12:17.931Z,101934.06
2023-02-11T17:14:45.559Z,101943.06
2023-02-11T17:17:13.500Z,101936.63
2023-02-11T17:19:41.174Z,101931.19
2023-02-11T17:22:09.138Z,101939.28
2023-02-11T17:24:36.814Z,101943.22
2023-02-11T17:27:04.659Z,101931.06
2023-02-11T17:29:33.658Z,101936.00
2023-02-11T17:32:01.374Z,101931.13
2023-02-11T17:34:29.346Z,101926.50
2023-02-11T17:36:57.833Z,101933.13
2023-02-11T17:39:25.872Z,101929.16
2023-02-11T17:41:53.444Z,101927.97
2023-02-11T17:44:21.008Z,101927.75
2023-02-11T17:46:49.981Z,101934.47
2023-02-11T17:49:17.550Z,101940.88
2023-02-11T17:51:45.211Z,101939.66
2023-02-11T17:54:14.994Z,101939.13
2023-02-11T17:56:43.298Z,101947.19
2023-02-11T17:59:13.075Z,101953.13
2023-02-11T18:01:42.533Z,101945.75
2023-02-11T18:04:14.885Z,101948.00
2023-02-11T18:06:42.510Z,101953.00
2023-02-11T18:09:10.092Z,101954.47
2023-02-11T18:11:39.670Z,101953.28
2023-02-11T18:14:08.932Z,101960.75
2023-02-11T18:16:39.009Z,101956.31
2023-02-11T18:19:07.732Z,101960.75
2023-02-11T18:21:37.532Z,101954.72
2023-02-11T18:24:06.930Z,101961.31
2023-02-11T18:26:35.266Z,101962.78
2023-02-11T18:29:03.743Z,101968.81
2023-02-11T18:31:31.492Z,101961.91
2023-02-11T18:33:59.210Z,101976.41
2023-02-11T18:36:27.018Z,101975.28
2023-02-11T18:38:57.953Z,101978.63
2023-02-11T18:41:25.722Z,101981.75
2023-02-11T18:43:53.495Z,101979.75
2023-02-11T18:46:21.121Z,101971.09
2023-02-11T18:48:50.064Z,101986.25
2023-02-11T18:51:19.200Z,101983.66
2023-02-11T18:53:47.374Z,101980.13
2023-02-11T18:56:18.024Z,101987.59
2023-02-11T18:58:45.673Z,101988.28
2023-02-11T19:01:15.823Z,101989.16
2023-02-11T19:03:44.054Z,101988.84
2023-02-11T19:06:15.960Z,101985.81
2023-02-11T19:08:43.595Z,101985.81
2023-02-11T19:11:11.152Z,101979.72
2023-02-11T19:13:40.170Z,101979.56
2023-02-11T19:16:11.300Z,101978.59
2023-02-11T19:18:39.564Z,101982.50
2023-02-11T19:21:08.611Z,101980.50
2023-02-11T19:23:36.594Z,101978.63
2023-02-11T19:26:06.198Z,101983.16
2023-02-11T19:28:35.167Z,101979.59
2023-02-11T19:31:08.670Z,101972.72
2023-02-11T19:33:36.648Z,101976.81
2023-02-11T19:36:07.321Z,101980.94
2023-02-11T19:38:35.421Z,101980.72
2023-02-11T19:41:03.380Z,101980.53
2023-02-11T19:43:30.989Z,101981.16
2023-02-11T19:45:58.712Z,101969.63
2023-02-11T19:48:27.675Z,101962.50
2023-02-11T19:50:56.194Z,101958.06
2023-02-11T19:53:24.055Z,101966.63
2023-02-11T19:55:52.345Z,101966.97
2023-02-11T19:58:20.189Z,101965.16
2023-02-11T20:00:47.737Z,101965.16
2023-02-11T20:03:15.314Z,101968.50
2023-02-11T20:05:47.039Z,101963.41
2023-02-11T20:08:16.866Z,101966.63
2023-02-11T20:10:44.407Z,101971.63
2023-02-11T20:13:12.101Z,101969.84
2023-02-11T20:15:39.757Z,101962.97
2023-02-11T20:18:07.382Z,101974.88
2023-02-11T20:20:34.987Z,101968.75
2023-02-11T20:23:03.882Z,101969.66
2023-02-11T20:25:31.583Z,101970.53
2023-02-11T20:27:59.389Z,101966.31
2023-02-11T20:30:26.924Z,101967.84
2023-02-11T20:32:54.434Z,101964.28
2023-02-11T20:35:22.242Z,101959.97
2023-02-11T20:37:49.860Z,101962.41
2023-02-11T20:40:19.172Z,101981.41
2023-02-11T20:42:46.776Z,101976.53
2023-02-11T20:45:14.390Z,101987.66
2023-02-11T20:47:42.365Z,101974.78
2023-02-11T20:50:10.755Z,101979.09
2023-02-11T20:52:38.420Z,101978.31
2023-02-11T20:55:06.584Z,101982.66
2023-02-11T20:57:35.462Z,101986.53
2023-02-11T21:00:04.015Z,101990.78
2023-02-11T21:02:31.800Z,101985.22
2023-02-11T21:04:59.327Z,101984.88
2023-02-11T21:07:29.157Z,101987.22
2023-02-11T21:09:56.861Z,101986.44
2023-02-11T21:12:24.810Z,101990.09
2023-02-11T21:14:54.810Z,101987.44
2023-02-11T21:17:22.378Z,101980.53
2023-02-11T21:19:49.992Z,101988.22
2023-02-11T21:22:17.640Z,101986.75
2023-02-11T21:24:45.173Z,101983.19
2023-02-11T21:27:12.760Z,101986.09
2023-02-11T21:29:52.829Z,101981.63
2023-02-11T21:32:23.104Z,101989.97
2023-02-11T21:34:50.724Z,101990.97
2023-02-11T21:37:18.326Z,101987.41
2023-02-11T21:39:45.912Z,101992.28
2023-02-11T21:42:13.505Z,101994.84
2023-02-11T21:44:41.164Z,101995.28
2023-02-11T21:47:08.836Z,101993.38
2023-02-11T21:49:37.800Z,102002.97
2023-02-11T21:52:05.650Z,102000.06
2023-02-11T21:54:33.369Z,101989.59
2023-02-11T21:57:02.930Z,101990.94
2023-02-11T21:59:31.708Z,101994.03
2023-02-11T22:02:00.229Z,102003.13
2023-02-11T22:04:27.850Z,101998.00
2023-02-11T22:06:56.750Z,101996.00
2023-02-11T22:09:24.311Z,101997.66
2023-02-11T22:11:52.941Z,102001.50
2023-02-11T22:14:20.492Z,102005.09
2023-02-11T22:16:48.904Z,102008.38
2023-02-11T22:19:17.148Z,102010.44
2023-02-11T22:21:44.732Z,102003.81
2023-02-11T22:24:13.633Z,102017.31
2023-02-11T22:26:41.283Z,102025.13
2023-02-11T22:29:09.086Z,102028.59
2023-02-11T22:31:37.422Z,102026.03
2023-02-11T22:34:06.236Z,102019.78
2023-02-11T22:36:36.141Z,102025.53
2023-02-11T22:39:05.829Z,102027.06
2023-02-11T22:41:35.099Z,102025.19
2023-02-11T22:44:02.684Z,102028.63
2023-02-11T22:46:30.443Z,102027.16
2023-02-11T22:48:58.153Z,102019.78
2023-02-11T22:51:28.283Z,102025.78
2023-02-11T22:53:57.766Z,102022.34
2023-02-11T22:56:26.722Z,102022.22
2023-02-11T22:58:58.405Z,102016.19
2023-02-11T23:01:26.188Z,102019.38
2023-02-11T23:03:53.865Z,102013.50
2023-02-11T23:06:22.133Z,102015.06
2023-02-11T23:08:49.952Z,102034.47
2023-02-11T23:11:19.401Z,102038.44
2023-02-11T23:13:49.489Z,102032.16
2023-02-11T23:16:21.786Z,102033.72
2023-02-11T23:18:50.734Z,102027.72
2023-02-11T23:21:21.138Z,102028.63
2023-02-11T23:23:50.043Z,102026.16
2023-02-11T23:26:19.166Z,102030.41
2023-02-11T23:28:47.676Z,102025.28
2023-02-11T23:31:18.951Z,102025.28
2023-02-11T23:33:47.755Z,102023.25
2023-02-11T23:36:16.253Z,102032.59
2023-02-11T23:38:44.406Z,102031.72
2023-02-11T23:41:12.881Z,102029.16
2023-02-11T23:43:40.919Z,102029.94
2023-02-11T23:46:09.536Z,102028.16
2023-02-11T23:48:40.330Z,102038.38
2023-02-11T23:51:09.480Z,102041.47
2023-02-11T23:53:37.319Z,102036.34
2023-02-11T23:56:08.349Z,102036.34
2023-02-11T23:58:36.022Z,102034.56
